Time;durP1;ratioP1;P1;durP2;ratioP2;P2;SDS_P1;SDS_P2;PMS_P1;PMS_P2;Temp;Humidity;BMP_temperature;BMP_pressure;BME280_temperature;BME280_humidity;BME280_pressure;Samples;Min_cycle;Max_cycle;Signal;HPM_P1;HPM_P2
2022/05/15 00:02:09;;;;;;;0.08;0.08;;;;;;;15.95;56.80;102204.59;5065750;28;20075;-84
2022/05/15 00:04:36;;;;;;;0.80;0.80;;;;;;;15.93;57.54;102206.41;5062969;28;20029;-83
2022/05/15 00:07:04;;;;;;;0.70;0.55;;;;;;;15.91;57.56;102208.22;5062584;28;20029;-83
2022/05/15 00:09:30;;;;;;;0.00;0.00;;;;;;;15.90;57.23;102203.81;5049242;28;20082;-83
2022/05/15 00:11:57;;;;;;;0.00;0.00;;;;;;;15.89;57.25;102203.81;5049489;28;20073;-82
2022/05/15 00:14:23;;;;;;;0.10;0.10;;;;;;;15.84;57.67;102199.44;5051934;28;20029;-82
2022/05/15 00:16:49;;;;;;;0.00;0.00;;;;;;;15.83;57.36;102192.34;5056435;28;20039;-82
2022/05/15 00:19:15;;;;;;;1.95;0.38;;;;;;;15.80;58.34;102189.72;5065462;28;20047;-82
2022/05/15 00:21:41;;;;;;;0.00;0.00;;;;;;;15.79;57.37;102193.28;5055325;28;20028;-82
2022/05/15 00:24:08;;;;;;;0.00;0.00;;;;;;;15.78;57.79;102180.84;5067141;28;20040;-82
2022/05/15 00:26:35;;;;;;;0.00;0.00;;;;;;;15.75;56.95;102180.91;5056690;28;20028;-82
2022/05/15 00:29:01;;;;;;;0.00;0.00;;;;;;;15.75;57.82;102185.34;5064879;28;20048;-82
2022/05/15 00:31:28;;;;;;;0.00;0.00;;;;;;;15.72;57.77;102180.97;5065109;28;20029;-82
2022/05/15 00:33:54;;;;;;;0.00;0.00;;;;;;;15.70;57.52;102180.09;5072506;28;20111;-83
2022/05/15 00:36:20;;;;;;;0.20;0.20;;;;;;;15.67;57.68;102169.50;5059109;28;20041;-82
2022/05/15 00:38:46;;;;;;;11.65;3.50;;;;;;;15.64;57.45;102181.13;5068500;28;20139;-83
2022/05/15 00:41:13;;;;;;;0.00;0.00;;;;;;;15.60;58.01;102178.53;5059474;22;20060;-80
2022/05/15 00:46:28;;;;;;;0.00;0.00;;;;;;;15.55;58.27;102173.28;5066432;28;20913;-78
2022/05/15 00:48:56;;;;;;;0.00;0.00;;;;;;;15.50;58.49;102176.06;5040744;28;20060;-81
2022/05/15 00:51:28;;;;;;;0.00;0.00;;;;;;;15.49;58.30;102171.63;5036315;28;20030;-81
2022/05/15 00:54:05;;;;;;;0.10;0.10;;;;;;;15.50;58.38;102167.13;5040566;28;20029;-80
2022/05/15 00:56:35;;;;;;;0.10;0.10;;;;;;;15.46;58.04;102176.13;5037488;28;20059;-78
2022/05/15 00:59:08;;;;;;;0.32;0.32;;;;;;;15.43;58.03;102177.06;5041007;28;20064;-80
2022/05/15 01:01:34;;;;;;;0.00;0.00;;;;;;;15.37;57.72;102175.38;5043238;28;20065;-81
2022/05/15 01:04:01;;;;;;;0.00;0.00;;;;;;;15.34;58.13;102178.13;5045562;28;20051;-80
2022/05/15 01:06:29;;;;;;;0.10;0.10;;;;;;;15.32;58.98;102182.59;5049238;28;20044;-80
2022/05/15 01:08:56;;;;;;;0.00;0.00;;;;;;;15.30;58.34;102186.22;5048959;28;20029;-81
2022/05/15 01:11:24;;;;;;;2.20;1.65;;;;;;;15.29;58.66;102181.78;5041141;28;20040;-78
2022/05/15 01:13:52;;;;;;;0.00;0.00;;;;;;;15.25;58.33;102169.41;5052543;28;20049;-80
2022/05/15 01:16:23;;;;;;;0.45;0.45;;;;;;;15.24;59.06;102178.31;5044352;28;20111;-78
2022/05/15 01:18:49;;;;;;;0.45;0.45;;;;;;;15.20;58.85;102173.06;5048737;28;20033;-80
2022/05/15 01:24:05;;;;;;;0.20;0.20;;;;;;;15.16;58.88;102176.66;5069099;28;20402;-81
2022/05/15 01:26:33;;;;;;;0.00;0.00;;;;;;;15.14;58.43;102167.81;5052872;28;20047;-81
2022/05/15 01:29:00;;;;;;;1.33;1.23;;;;;;;15.11;58.63;102175.88;5045454;28;20043;-81
2022/05/15 01:31:27;;;;;;;1.75;0.47;;;;;;;15.08;57.99;102173.28;5050017;28;20025;-80
2022/05/15 01:33:54;;;;;;;0.20;0.20;;;;;;;15.07;58.32;102175.97;5054128;28;20517;-79
2022/05/15 01:36:23;;;;;;;0.10;0.10;;;;;;;15.03;58.63;102172.47;5045956;28;20140;-78
2022/05/15 01:38:49;;;;;;;0.70;0.70;;;;;;;14.99;58.31;102171.63;5051037;28;20029;-81
2022/05/15 01:41:16;;;;;;;0.00;0.00;;;;;;;14.98;58.63;102174.34;5052613;28;20057;-81
2022/05/15 01:43:46;;;;;;;0.10;0.10;;;;;;;14.94;58.91;102169.94;5051517;28;20025;-79
2022/05/15 01:46:13;;;;;;;0.00;0.00;;;;;;;14.93;58.27;102168.19;5053964;28;20029;-79
2022/05/15 01:48:39;;;;;;;0.08;0.08;;;;;;;14.89;58.57;102162.00;5042668;28;20034;-79
2022/05/15 01:51:05;;;;;;;0.00;0.00;;;;;;;14.86;58.74;102165.59;5053954;28;20059;-79
2022/05/15 01:53:32;;;;;;;1.30;1.20;;;;;;;14.85;58.55;102160.31;5052068;28;20021;-79
2022/05/15 01:55:58;;;;;;;0.00;0.00;;;;;;;14.83;58.96;102162.16;5050899;28;20494;-79
2022/05/15 01:58:24;;;;;;;0.90;0.90;;;;;;;14.79;58.21;102163.97;5052321;28;20033;-78
2022/05/15 02:00:50;;;;;;;0.00;0.00;;;;;;;14.77;58.34;102168.44;5045851;28;20120;-79
2022/05/15 02:03:18;;;;;;;0.05;0.05;;;;;;;14.75;58.78;102164.91;5056398;28;20030;-78
2022/05/15 02:05:44;;;;;;;0.10;0.10;;;;;;;14.72;59.20;102155.16;5049705;28;20034;-80
2022/05/15 02:08:10;;;;;;;0.00;0.00;;;;;;;14.72;58.93;102154.31;5051048;28;20662;-80
2022/05/15 02:10:36;;;;;;;0.00;0.00;;;;;;;14.69;58.68;102154.34;5047926;28;20096;-80
2022/05/15 02:13:03;;;;;;;0.10;0.10;;;;;;;14.67;58.87;102156.16;5047874;28;20101;-79
2022/05/15 02:15:29;;;;;;;0.00;0.00;;;;;;;14.64;58.49;102159.75;5039463;28;20518;-77
2022/05/15 02:17:56;;;;;;;0.00;0.00;;;;;;;14.62;58.81;102164.22;5047805;28;20114;-78
2022/05/15 02:20:23;;;;;;;0.00;0.00;;;;;;;14.61;58.73;102158.91;5045005;28;20026;-80
2022/05/15 02:22:49;;;;;;;0.00;0.00;;;;;;;14.56;59.16;102164.31;5045504;28;20036;-80
2022/05/15 02:25:15;;;;;;;0.00;0.00;;;;;;;14.54;59.26;102163.44;5051092;28;20422;-78
2022/05/15 02:27:46;;;;;;;0.00;0.00;;;;;;;14.54;58.91;102161.66;5049522;28;20029;-78
2022/05/15 02:30:13;;;;;;;0.32;0.32;;;;;;;14.53;58.73;102159.03;5045181;28;20029;-80
2022/05/15 02:32:40;;;;;;;0.20;0.20;;;;;;;14.50;58.85;102157.25;5045370;28;20025;-78
2022/05/15 02:35:07;;;;;;;0.00;0.00;;;;;;;14.50;59.01;102159.06;5036918;28;20037;-79
2022/05/15 02:37:33;;;;;;;0.05;0.05;;;;;;;14.48;58.82;102160.84;5036991;28;20171;-81
2022/05/15 02:39:59;;;;;;;0.00;0.00;;;;;;;14.45;58.99;102151.13;5038412;28;20040;-80
2022/05/15 02:42:26;;;;;;;0.00;0.00;;;;;;;14.43;58.94;102155.63;5035626;28;20032;-80
2022/05/15 02:44:52;;;;;;;0.00;0.00;;;;;;;14.42;59.12;102161.84;5036746;28;20040;-79
2022/05/15 02:47:18;;;;;;;0.93;0.93;;;;;;;14.40;58.45;102153.88;5036086;28;20036;-79
2022/05/15 02:52:30;;;;;;;0.10;0.10;;;;;;;14.38;58.96;102152.13;5032727;28;20033;-80
2022/05/15 02:54:56;;;;;;;0.03;0.03;;;;;;;14.37;58.35;102150.38;5034468;28;20033;-81
2022/05/15 02:57:22;;;;;;;0.10;0.10;;;;;;;14.34;58.53;102143.31;5035678;28;20446;-80
2022/05/15 02:59:49;;;;;;;0.00;0.00;;;;;;;14.34;58.55;102142.41;5030261;28;20034;-81
2022/05/15 03:02:15;;;;;;;0.00;0.00;;;;;;;14.33;58.64;102140.63;5034673;28;20103;-80
2022/05/15 03:04:41;;;;;;;0.35;0.35;;;;;;;14.31;59.06;102147.81;5026808;28;20045;-81
2022/05/15 03:07:07;;;;;;;0.22;0.22;;;;;;;14.31;59.08;102142.47;5035633;28;20033;-81
2022/05/15 03:09:34;;;;;;;0.00;0.00;;;;;;;14.28;59.29;102143.41;5035786;28;20510;-82
2022/05/15 03:12:00;;;;;;;0.00;0.00;;;;;;;14.27;59.01;102135.41;5031089;28;20048;-79
2022/05/15 03:14:27;;;;;;;0.00;0.00;;;;;;;14.25;58.99;102143.44;5035624;28;20044;-81
2022/05/15 03:16:53;;;;;;;0.00;0.00;;;;;;;14.23;58.83;102140.78;5034156;28;20052;-80
2022/05/15 03:19:19;;;;;;;0.00;0.00;;;;;;;14.22;59.33;102140.81;5037246;28;20103;-81
2022/05/15 03:21:45;;;;;;;0.00;0.00;;;;;;;14.19;59.39;102132.84;5034722;28;20116;-82
2022/05/15 03:24:13;;;;;;;0.00;0.00;;;;;;;14.19;59.01;102136.41;5035620;28;20025;-81
2022/05/15 03:26:42;;;;;;;0.00;0.00;;;;;;;14.19;59.09;102130.19;5035369;28;20120;-79
2022/05/15 03:29:10;;;;;;;0.00;0.00;;;;;;;14.15;58.80;102129.34;5032720;28;20035;-81
2022/05/15 03:31:39;;;;;;;0.00;0.00;;;;;;;14.16;58.77;102127.59;5033954;28;20539;-81
2022/05/15 03:34:07;;;;;;;0.10;0.10;;;;;;;14.14;58.95;102130.25;5030791;28;20045;-77
2022/05/15 03:36:36;;;;;;;0.30;0.30;;;;;;;14.12;59.32;102121.41;5027043;28;20037;-80
2022/05/15 03:39:06;;;;;;;0.00;0.00;;;;;;;14.10;59.40;102123.19;5034111;28;20025;-80
2022/05/15 03:41:34;;;;;;;0.10;0.10;;;;;;;14.09;58.75;102116.09;5035322;28;20025;-78
2022/05/15 03:44:00;;;;;;;0.00;0.00;;;;;;;14.08;59.03;102119.66;5033343;28;20093;-80
2022/05/15 03:46:27;;;;;;;0.88;0.88;;;;;;;14.07;58.97;102120.59;5021178;28;20030;-77
2022/05/15 03:48:53;;;;;;;0.00;0.00;;;;;;;14.05;59.25;102117.94;5028166;28;20029;-79
2022/05/15 03:51:19;;;;;;;0.30;0.30;;;;;;;14.03;59.34;102110.88;5030978;28;20038;-80
2022/05/15 03:53:45;;;;;;;0.95;0.88;;;;;;;14.03;59.05;102114.44;5033890;28;20021;-77
2022/05/15 03:56:12;;;;;;;0.03;0.03;;;;;;;14.02;58.90;102114.47;5030853;28;20029;-77
2022/05/15 03:58:39;;;;;;;0.00;0.00;;;;;;;14.00;59.20;102117.13;5033375;28;20037;-79
2022/05/15 04:01:06;;;;;;;0.10;0.10;;;;;;;14.01;58.98;102123.34;5026101;28;20040;-77
2022/05/15 04:03:32;;;;;;;0.25;0.25;;;;;;;13.99;59.43;102118.00;5035584;28;20107;-79
2022/05/15 04:05:59;;;;;;;0.03;0.03;;;;;;;14.00;59.50;102116.25;5037257;28;20033;-77
2022/05/15 04:08:27;;;;;;;0.00;0.00;;;;;;;14.00;59.71;102114.44;5036685;28;20094;-79
2022/05/15 04:10:55;;;;;;;0.00;0.00;;;;;;;14.02;59.46;102119.78;5034649;28;20124;-79
2022/05/15 04:13:23;;;;;;;0.05;0.05;;;;;;;14.03;59.38;102118.84;5032987;28;20056;-78
2022/05/15 04:15:49;;;;;;;0.00;0.00;;;;;;;14.03;59.17;102121.53;5031349;28;20511;-79
2022/05/15 04:18:16;;;;;;;0.32;0.32;;;;;;;14.04;59.03;102123.28;5024026;28;20033;-79
2022/05/15 04:20:42;;;;;;;0.00;0.00;;;;;;;14.05;59.71;102125.06;5031966;28;20516;-77
2022/05/15 04:23:08;;;;;;;0.03;0.03;;;;;;;14.06;59.11;102119.69;5028710;28;20060;-79
2022/05/15 04:25:34;;;;;;;0.00;0.00;;;;;;;14.08;59.33;102125.00;5033279;28;20155;-79
2022/05/15 04:28:00;;;;;;;0.28;0.28;;;;;;;14.09;60.24;102116.09;5032406;28;20037;-78
2022/05/15 04:30:28;;;;;;;0.10;0.10;;;;;;;14.13;59.12;102123.19;5030816;28;20052;-78
2022/05/15 04:32:54;;;;;;;0.00;0.00;;;;;;;14.16;59.33;102123.13;5031789;28;20202;-79
2022/05/15 04:35:22;;;;;;;0.00;0.00;;;;;;;14.19;59.54;102128.41;5028540;28;20058;-78
2022/05/15 04:37:50;;;;;;;0.30;0.30;;;;;;;14.21;59.20;102121.25;5035667;28;20049;-79
2022/05/15 04:40:17;;;;;;;0.00;0.00;;;;;;;14.23;59.27;102124.78;5030725;28;20593;-81
2022/05/15 04:42:43;;;;;;;0.00;0.00;;;;;;;14.24;59.18;102123.00;5034353;28;20033;-81
2022/05/15 04:45:10;;;;;;;0.20;0.20;;;;;;;14.27;59.14;102132.72;5034118;28;20404;-80
2022/05/15 04:47:36;;;;;;;0.70;0.70;;;;;;;14.28;58.85;102130.06;5029851;28;20049;-80
2022/05/15 04:50:03;;;;;;;0.57;0.57;;;;;;;14.29;59.23;102126.47;5030574;28;20036;-80
2022/05/15 04:52:29;;;;;;;0.00;0.00;;;;;;;14.33;59.14;102124.63;5031952;28;20415;-80
2022/05/15 04:54:55;;;;;;;0.00;0.00;;;;;;;14.35;58.98;102133.50;5033873;28;20084;-80
2022/05/15 04:57:21;;;;;;;0.00;0.00;;;;;;;14.38;58.90;102128.13;5033580;28;20044;-80
2022/05/15 04:59:48;;;;;;;0.08;0.08;;;;;;;14.39;58.94;102127.22;5037010;28;20043;-79
2022/05/15 05:02:14;;;;;;;0.32;0.32;;;;;;;14.42;59.21;102120.94;5031521;28;20451;-80
2022/05/15 05:04:40;;;;;;;0.20;0.20;;;;;;;14.45;58.72;102124.47;5033068;28;20040;-80
2022/05/15 05:07:06;;;;;;;0.00;0.00;;;;;;;14.47;59.05;102125.31;5030948;28;20484;-80
2022/05/15 05:09:32;;;;;;;0.00;0.00;;;;;;;14.51;58.78;102123.50;5034153;28;20045;-80
2022/05/15 05:11:58;;;;;;;0.05;0.05;;;;;;;14.54;59.08;102127.00;5037260;28;20041;-80
2022/05/15 05:14:24;;;;;;;0.10;0.10;;;;;;;14.57;59.11;102120.72;5032496;28;20483;-80
2022/05/15 05:16:50;;;;;;;0.10;0.10;;;;;;;14.61;59.25;102118.91;5029911;28;20040;-80
2022/05/15 05:19:16;;;;;;;0.00;0.00;;;;;;;14.64;59.17;102118.81;5023166;28;20531;-80
2022/05/15 05:21:42;;;;;;;0.10;0.10;;;;;;;14.67;59.08;102108.16;5033047;28;21253;-79
2022/05/15 05:24:09;;;;;;;0.38;0.38;;;;;;;14.69;59.12;102114.31;5033003;28;20045;-79
2022/05/15 05:26:35;;;;;;;0.00;0.00;;;;;;;14.73;59.38;102124.06;5027905;28;20044;-80
2022/05/15 05:29:01;;;;;;;0.05;0.05;;;;;;;14.77;59.32;102122.22;5030360;28;20107;-80
2022/05/15 05:31:27;;;;;;;0.05;0.05;;;;;;;14.81;59.35;102131.94;5025708;28;20084;-81
2022/05/15 05:33:53;;;;;;;0.00;0.00;;;;;;;14.84;59.76;102124.75;5033900;28;20029;-80
2022/05/15 05:36:20;;;;;;;0.00;0.00;;;;;;;14.89;59.42;102129.97;5032950;28;20036;-81
2022/05/15 05:38:46;;;;;;;0.00;0.00;;;;;;;14.93;59.62;102122.81;5030170;28;20034;-80
2022/05/15 05:41:12;;;;;;;0.03;0.03;;;;;;;14.98;59.60;102118.31;5032722;28;20049;-80
2022/05/15 05:43:39;;;;;;;0.08;0.08;;;;;;;15.03;59.63;102116.41;5035168;28;20040;-81
2022/05/15 05:46:05;;;;;;;0.10;0.10;;;;;;;15.08;59.66;102124.31;5028780;28;20087;-80
2022/05/15 05:48:32;;;;;;;0.00;0.00;;;;;;;15.12;60.14;102124.25;5031908;28;20030;-79
2022/05/15 05:50:58;;;;;;;0.00;0.00;;;;;;;15.19;59.44;102117.88;5029289;28;20061;-79
2022/05/15 05:53:24;;;;;;;0.10;0.10;;;;;;;15.27;59.73;102114.19;5023511;28;20088;-80
2022/05/15 05:55:52;;;;;;;0.20;0.10;;;;;;;15.34;59.36;102118.50;5030354;28;20061;-80
2022/05/15 05:58:18;;;;;;;0.10;0.10;;;;;;;15.38;59.41;102128.22;5034388;28;20029;-80
2022/05/15 06:00:45;;;;;;;0.35;0.35;;;;;;;15.45;59.38;102121.84;5028294;28;20071;-80
2022/05/15 06:05:57;;;;;;;0.00;0.00;;;;;;;15.59;59.75;102126.00;5030663;28;20518;-80
2022/05/15 06:08:24;;;;;;;1.13;1.13;;;;;;;15.66;59.41;102128.53;5023138;28;20065;-80
2022/05/15 06:10:50;;;;;;;0.00;0.00;;;;;;;15.74;59.98;102125.72;5032281;28;20029;-81
2022/05/15 06:13:16;;;;;;;0.28;0.28;;;;;;;15.82;59.19;102121.09;5037023;28;20033;-81
2022/05/15 06:15:42;;;;;;;0.00;0.00;;;;;;;15.89;59.07;102124.53;5037136;28;20036;-80
2022/05/15 06:18:08;;;;;;;0.10;0.10;;;;;;;15.96;59.26;102125.25;5036139;28;20040;-81
2022/05/15 06:20:35;;;;;;;0.10;0.10;;;;;;;15.98;58.90;102128.78;5037090;28;20053;-81
2022/05/15 06:23:01;;;;;;;0.00;0.00;;;;;;;16.10;59.35;102128.53;5037430;28;20026;-81
2022/05/15 06:25:27;;;;;;;0.00;0.00;;;;;;;16.15;59.13;102123.94;5039151;28;20556;-80
2022/05/15 06:27:53;;;;;;;0.10;0.10;;;;;;;16.24;58.75;102122.84;5037511;28;20488;-80
2022/05/15 06:30:19;;;;;;;0.00;0.00;;;;;;;16.33;58.69;102130.66;5027904;28;20036;-81
2022/05/15 06:32:46;;;;;;;0.45;0.20;;;;;;;16.42;59.72;102129.53;5028082;28;20033;-80
2022/05/15 06:35:14;;;;;;;0.47;0.47;;;;;;;16.55;58.61;102134.59;5035472;28;20022;-81
2022/05/15 06:37:40;;;;;;;0.10;0.10;;;;;;;16.62;58.90;102130.88;5035630;28;20022;-80
2022/05/15 06:42:37;;;;;;;0.00;0.00;;;;;;;16.80;58.07;102130.41;4981439;28;20070;-77
2022/05/15 06:45:05;;;;;;;0.00;0.00;;;;;;;16.89;57.97;102133.78;4989334;28;20545;-77
2022/05/15 06:47:31;;;;;;;0.00;0.00;;;;;;;16.96;58.51;102135.41;4998778;28;20037;-77
2022/05/15 06:49:58;;;;;;;0.35;0.35;;;;;;;17.05;57.95;102127.13;4996631;28;20487;-77
2022/05/15 06:52:25;;;;;;;0.10;0.10;;;;;;;17.16;57.60;102120.59;5001065;28;20022;-78
2022/05/15 06:54:51;;;;;;;0.10;0.10;;;;;;;17.24;58.06;102123.94;4993806;28;20038;-77
2022/05/15 06:57:33;;;;;;;0.20;0.20;;;;;;;17.32;57.80;102121.94;4983436;28;20499;-77
2022/05/15 07:00:03;;;;;;;0.20;0.20;;;;;;;17.45;57.03;102134.03;4998907;28;20038;-77
2022/05/15 07:02:30;;;;;;;1.30;1.23;;;;;;;17.52;57.35;102125.84;5002505;28;20109;-77
2022/05/15 07:04:56;;;;;;;0.00;0.00;;;;;;;17.61;57.03;102120.22;4992181;28;20096;-76
2022/05/15 07:07:23;;;;;;;7.32;0.43;;;;;;;17.71;56.71;102116.34;4995869;28;20034;-76
2022/05/15 07:09:49;;;;;;;0.00;0.00;;;;;;;17.79;57.34;102117.00;4995090;28;20034;-76
2022/05/15 07:12:15;;;;;;;0.20;0.20;;;;;;;17.90;56.98;102113.13;4991458;28;20034;-76
2022/05/15 07:14:42;;;;;;;0.00;0.00;;;;;;;17.97;56.65;102116.50;4993672;28;20108;-76
2022/05/15 07:17:09;;;;;;;0.17;0.17;;;;;;;18.07;56.31;102116.19;4998679;28;20379;-76
2022/05/15 07:19:38;;;;;;;0.00;0.00;;;;;;;18.14;56.20;102121.34;4992655;28;20050;-77
2022/05/15 07:22:04;;;;;;;0.00;0.00;;;;;;;18.24;56.17;102118.34;4991924;28;20026;-77
2022/05/15 07:24:30;;;;;;;0.22;0.22;;;;;;;18.32;56.06;102115.41;4993713;28;20038;-77
2022/05/15 07:26:56;;;;;;;0.00;0.00;;;;;;;18.42;55.92;102121.34;4991014;28;20045;-76
2022/05/15 07:29:24;;;;;;;0.10;0.10;;;;;;;18.52;55.94;102125.47;4995767;28;20509;-76
2022/05/15 07:31:52;;;;;;;0.08;0.08;;;;;;;18.64;55.49;102123.31;4995717;28;20030;-78
2022/05/15 07:34:19;;;;;;;0.00;0.00;;;;;;;18.71;55.77;102123.06;4998371;28;20101;-83
2022/05/15 07:36:50;;;;;;;0.00;0.00;;;;;;;18.82;55.58;102125.38;4992780;28;20031;-77
2022/05/15 07:39:17;;;;;;;2.38;0.75;;;;;;;18.91;55.24;102127.75;4991789;28;20026;-78
2022/05/15 07:41:43;;;;;;;0.45;0.45;;;;;;;18.97;55.32;102129.38;4990174;28;20128;-77
2022/05/15 07:44:09;;;;;;;0.10;0.10;;;;;;;19.10;54.65;102121.75;4991169;28;20579;-77
2022/05/15 07:46:37;;;;;;;0.00;0.00;;;;;;;19.20;54.76;102125.00;4993860;28;20046;-77
2022/05/15 07:49:03;;;;;;;0.65;0.65;;;;;;;19.29;54.51;102124.69;4994254;28;20042;-78
2022/05/15 07:51:32;;;;;;;0.05;0.05;;;;;;;19.38;54.33;102124.31;4994208;28;20415;-78
2022/05/15 07:53:59;;;;;;;0.10;0.10;;;;;;;19.53;54.21;102127.38;4995408;28;20030;-78
2022/05/15 07:56:28;;;;;;;0.10;0.10;;;;;;;19.67;54.03;102118.81;5001888;28;20014;-83
2022/05/15 07:58:55;;;;;;;0.03;0.03;;;;;;;19.79;53.27;102109.38;5011670;28;20037;-80
2022/05/15 08:01:21;;;;;;;0.10;0.10;;;;;;;19.92;52.89;102109.81;4993699;28;20065;-81
2022/05/15 08:03:47;;;;;;;0.00;0.00;;;;;;;20.06;52.34;102104.75;4994905;28;20041;-81
2022/05/15 08:09:04;;;;;;;2.92;1.58;;;;;;;20.34;51.80;102104.50;4997048;28;20050;-82
2022/05/15 08:11:31;;;;;;;2.72;1.55;;;;;;;20.45;51.38;102098.69;4993579;28;20123;-80
2022/05/15 08:14:01;;;;;;;0.00;0.00;;;;;;;20.57;51.37;102099.97;4992507;28;20034;-82
2022/05/15 08:16:28;;;;;;;0.05;0.05;;;;;;;20.71;51.23;102095.84;4992732;28;20373;-81
2022/05/15 08:24:27;;;;;;;0.10;0.10;;;;;;;21.08;51.18;102076.25;4996894;28;20045;-83
2022/05/15 08:26:54;;;;;;;0.08;0.08;;;;;;;21.19;50.73;102073.09;4991496;28;20503;-84
2022/05/15 08:29:20;;;;;;;0.13;0.13;;;;;;;21.27;50.52;102062.84;4987855;28;20034;-83
2022/05/15 08:31:46;;;;;;;0.00;0.00;;;;;;;21.40;50.73;102067.69;4992153;28;20034;-82
2022/05/15 08:34:13;;;;;;;0.30;0.30;;;;;;;21.49;50.51;102061.84;4990670;28;20061;-82
2022/05/15 08:36:41;;;;;;;0.10;0.10;;;;;;;21.59;50.54;102059.63;4993262;28;20052;-83
2022/05/15 08:39:09;;;;;;;0.00;0.00;;;;;;;21.75;50.30;102060.63;4993551;28;20109;-83
2022/05/15 08:49:39;;;;;;;0.00;0.00;;;;;;;22.24;49.85;102057.38;5071204;28;20138;-83
2022/05/15 08:57:48;;;;;;;0.00;0.00;;;;;;;22.64;49.13;102057.19;5105116;27;1569655;-82
2022/05/15 09:00:18;;;;;;;0.17;0.17;;;;;;;22.70;48.23;102058.69;5153098;27;20034;-82
2022/05/15 09:02:45;;;;;;;0.00;0.00;;;;;;;22.80;47.83;102061.81;5132300;27;20055;-83
2022/05/15 09:05:33;;;;;;;0.05;0.05;;;;;;;22.98;48.03;102054.53;5134415;27;20579;-83
2022/05/15 09:11:06;;;;;;;0.10;0.10;;;;;;;23.35;47.38;102039.06;5094989;27;20429;-82
2022/05/15 09:13:40;;;;;;;0.10;0.10;;;;;;;23.47;47.40;102037.53;5043302;28;20084;-82
2022/05/15 09:16:21;;;;;;;0.08;0.08;;;;;;;23.63;47.21;102035.69;5066062;28;20033;-83
2022/05/15 09:18:50;;;;;;;0.30;0.30;;;;;;;23.74;46.70;102035.09;5072354;28;20449;-83
2022/05/15 09:21:42;;;;;;;3.17;1.73;;;;;;;23.99;46.56;102026.47;5062304;28;20041;-85
2022/05/15 09:24:23;;;;;;;;;;;;;;;24.14;45.77;102024.69;5057922;28;20048;-84
2022/05/15 09:26:49;;;;;;;0.00;0.00;;;;;;;24.11;45.63;102018.56;5064327;28;19913;-83
2022/05/15 09:31:58;;;;;;;20.73;0.73;;;;;;;24.29;44.78;102022.00;5073409;27;20426;-86
2022/05/15 09:34:29;;;;;;;0.05;0.05;;;;;;;24.33;44.12;102020.88;5068415;28;20043;-85
2022/05/15 09:39:49;;;;;;;0.45;0.45;;;;;;;24.51;43.79;102036.03;5068375;28;20044;-86
2022/05/15 09:45:29;;;;;;;0.00;0.00;;;;;;;24.64;41.78;102032.59;5127230;27;20470;-84
2022/05/15 09:56:04;;;;;;;3.25;1.70;;;;;;;25.14;39.57;102008.75;5053921;27;1929269;-79
2022/05/15 09:59:02;;;;;;;0.00;0.00;;;;;;;25.41;40.49;102002.53;5101773;28;20028;-81
2022/05/15 10:01:40;;;;;;;0.85;0.73;;;;;;;25.59;40.19;102001.34;5104693;28;20035;-80
2022/05/15 10:09:33;;;;;;;;;;;;;;;;;;;;;
2022/05/15 10:11:14;;;;;;;0.10;0.10;;;;;;;25.71;36.20;102013.25;5033041;28;20051;-81
2022/05/15 10:15:46;;;;;;;2.28;1.02;;;;;;;25.80;38.01;102001.78;5009604;28;20103;-81
2022/05/15 10:17:22;;;;;;;2.00;0.73;;;;;;;25.83;38.46;101998.88;4984070;28;20041;-80
2022/05/15 10:20:00;;;;;;;1.63;1.13;;;;;;;25.98;38.39;102006.94;4998308;28;20046;-81
2022/05/15 10:22:52;;;;;;;0.40;0.40;;;;;;;26.16;38.63;101999.44;5003264;28;20050;-78
2022/05/15 10:25:25;;;;;;;;;;;;;;;26.25;36.77;102000.66;5005845;28;20492;-79
2022/05/15 10:33:46;;;;;;;0.10;0.10;;;;;;;26.50;35.26;101993.53;5089033;27;21633;-81
2022/05/15 10:36:43;;;;;;;1.95;1.27;;;;;;;26.61;35.73;101990.94;5069165;28;20028;-79
2022/05/15 10:42:46;;;;;;;0.20;0.20;;;;;;;26.78;37.15;101985.22;5086921;27;20416;-81
2022/05/15 10:45:42;;;;;;;0.20;0.20;;;;;;;26.79;33.68;101989.66;5073881;28;20047;-81
2022/05/15 10:49:00;;;;;;;0.57;0.43;;;;;;;26.94;34.67;101982.25;5081512;28;20021;-81
2022/05/15 10:51:37;;;;;;;0.00;0.00;;;;;;;27.02;32.96;101972.69;5075088;28;20051;-79
2022/05/15 10:57:30;;;;;;;0.10;0.10;;;;;;;27.22;33.05;101965.78;5074283;28;20647;-81
2022/05/15 11:00:37;;;;;;;1.17;0.98;;;;;;;27.22;31.99;101971.22;5080224;28;20024;-81
2022/05/15 11:08:54;;;;;;;0.10;0.10;;;;;;;27.32;32.48;101960.56;5112981;27;20394;-81
2022/05/15 11:11:46;;;;;;;0.10;0.10;;;;;;;27.44;31.94;101963.25;5098829;28;20066;-81
2022/05/15 11:14:36;;;;;;;0.67;0.67;;;;;;;27.46;33.41;101959.56;5100316;28;20024;-84
2022/05/15 11:17:29;;;;;;;0.60;0.60;;;;;;;27.68;32.31;101950.66;5099904;28;20040;-83
2022/05/15 11:20:04;;;;;;;0.52;0.52;;;;;;;27.73;32.83;101943.00;5100481;28;20031;-77
2022/05/15 11:22:43;;;;;;;0.22;0.22;;;;;;;27.85;32.84;101943.91;5103480;28;20035;-80
2022/05/15 11:28:03;;;;;;;0.30;0.30;;;;;;;28.03;31.02;101934.31;4902050;27;7236204;-80
2022/05/15 11:30:36;;;;;;;0.20;0.20;;;;;;;28.05;31.03;101937.84;5128371;27;20031;-80
2022/05/15 11:33:32;;;;;;;0.10;0.10;;;;;;;28.18;30.15;101923.25;5127867;27;20073;-83
2022/05/15 11:36:09;;;;;;;0.10;0.10;;;;;;;28.27;31.79;101919.81;5111077;27;20439;-83
2022/05/15 11:39:15;;;;;;;0.20;0.20;;;;;;;28.38;30.91;101917.09;5112338;28;20062;-83
2022/05/15 11:47:29;;;;;;;0.17;0.17;;;;;;;28.75;31.04;101901.53;5058299;28;20411;-80
2022/05/15 11:50:05;;;;;;;0.10;0.10;;;;;;;28.79;29.20;101905.78;5047510;28;20032;-81
2022/05/15 11:52:35;;;;;;;0.20;0.20;;;;;;;28.82;30.14;101903.63;5021945;28;20061;-79
2022/05/15 11:58:36;;;;;;;0.00;0.00;;;;;;;28.89;28.68;101898.56;5108253;27;20403;-81
2022/05/15 12:06:23;;;;;;;0.10;0.10;;;;;;;29.10;30.51;101887.75;5057669;28;20419;-81
2022/05/15 12:09:11;;;;;;;0.10;0.10;;;;;;;29.21;29.78;101884.16;5046156;28;20033;-79
2022/05/15 12:11:37;;;;;;;0.10;0.10;;;;;;;29.21;29.15;101892.34;5045981;28;20038;-82
2022/05/15 12:17:23;;;;;;;0.20;0.20;;;;;;;29.35;26.73;101880.28;5105629;27;20394;-82
2022/05/15 12:19:50;;;;;;;0.10;0.10;;;;;;;29.40;28.11;101882.59;5088893;28;20032;-82
2022/05/15 12:22:17;;;;;;;3.22;1.23;;;;;;;29.42;28.28;101877.91;5081906;28;20028;-80
2022/05/15 12:24:48;;;;;;;0.00;0.00;;;;;;;29.48;28.43;101871.91;5089203;28;20130;-82
2022/05/15 12:32:50;;;;;;;0.30;0.30;;;;;;;29.67;28.15;101863.00;5113880;27;20380;-81
2022/05/15 12:38:06;;;;;;;0.20;0.20;;;;;;;29.73;28.20;101864.38;5071110;28;20741;-80
2022/05/15 12:40:37;;;;;;;0.32;0.32;;;;;;;29.77;28.19;101863.09;5053860;28;20044;-79
2022/05/15 12:43:18;;;;;;;0.22;0.22;;;;;;;29.72;26.89;101866.25;5057354;28;20040;-82
2022/05/15 12:45:44;;;;;;;0.17;0.17;;;;;;;29.79;27.56;101855.66;5051216;28;20035;-82
2022/05/15 12:48:12;;;;;;;0.38;0.38;;;;;;;29.90;28.57;101844.69;5056186;28;20086;-81
2022/05/15 12:50:50;;;;;;;1.45;0.90;;;;;;;29.98;28.61;101844.00;5057411;28;20033;-83
2022/05/15 12:53:25;;;;;;;2.72;0.20;;;;;;;30.04;28.66;101845.34;5056315;28;20025;-83
2022/05/15 12:55:53;;;;;;;0.20;0.20;;;;;;;30.08;29.02;101849.53;5043629;28;20500;-83
2022/05/15 12:58:30;;;;;;;0.00;0.00;;;;;;;30.25;27.47;101832.50;5053893;28;20045;-83
2022/05/15 13:00:56;;;;;;;0.10;0.10;;;;;;;30.23;28.60;101826.31;5053260;28;20025;-83
2022/05/15 13:03:23;;;;;;;0.52;0.52;;;;;;;30.34;28.63;101834.44;5052216;28;20079;-83
2022/05/15 13:08:46;;;;;;;0.10;0.10;;;;;;;30.36;27.19;101819.75;5110730;27;20466;-78
2022/05/15 13:11:22;;;;;;;0.20;0.20;;;;;;;30.36;27.04;101819.75;5114064;28;20027;-79
2022/05/15 13:13:52;;;;;;;0.22;0.22;;;;;;;30.33;26.78;101821.78;5102860;28;20512;-78
2022/05/15 13:16:21;;;;;;;0.30;0.30;;;;;;;30.38;26.60;101815.03;5111936;28;20503;-80
2022/05/15 13:18:53;;;;;;;0.10;0.10;;;;;;;30.53;27.19;101821.91;5112250;28;20093;-79
2022/05/15 13:21:22;;;;;;;;;;;;;;;30.76;26.44;101818.94;5112315;28;20467;-79
2022/05/15 13:23:49;;;;;;;0.10;0.10;;;;;;;30.67;26.49;101817.91;5109343;28;19916;-79
2022/05/15 13:26:34;;;;;;;0.00;0.00;;;;;;;30.74;26.71;101807.25;5096837;28;20036;-79
2022/05/15 13:29:02;;;;;;;0.05;0.05;;;;;;;30.80;27.18;101807.56;5107606;28;20445;-78